Airport ID:KMHV
Update Time (UTC):19/11/2018 03:50
Wind Speed (Knots):9
Wind Direction (Magnetic):360
Temperature (°C):12
Dew Point (°C):-10
Humidity (%):22
Altimeter (inHg):30.13
Density Altitude (Feet):
Visibility (Miles):10+
Clouds (Hundreds of feet):CLR
Present Weather:
METAR:METAR KMHV 190340Z AUTO 01009KT 10SM CLR 12/M10 A3013 RMK A01

The data displayed is for advisory purposes only and is not to be used for flight planning or operations.

This page is not automatically refreshed. Reload the page to see current data.